Carter, Oklahoma
Current Conditions -  °F | °C
As of 2:15 AM on Sunday 21 Dec 2014 (Local Time) from KELK Reporting Station
Haze Haze  
Wind Chill: 88°   Ceiling: 100
Heat Index: 120°   Visibility: 2mi
Dew Point: 88°   Wind: 12mph
Humidity: 100%   Direction: 170°S
Pressure: 30.08"   Gusts: NA
Location:  35.22°N, 99.51°W
Report Text: KELK 210815Z AUTO 17010KT 2SM BR OVC001 31/31 A3008 RMK AO2
Loading
Personal Weather Stations






























Interactive Weather Map New forecast layout! Learn more

10-Day Weather Forecast

Advertisements
Track Severe Weather on mobile